sensor_id;sensor_type;location;lat;lon;timestamp;pressure;altitude;pressure_sealevel;temperature;humidity
36092;BME280;22147;52.388;13.390;2023-01-31T00:00:32;100748.09;;;1.88;100.00
36092;BME280;22147;52.388;13.390;2023-01-31T00:03:02;100745.13;;;2.05;100.00
36092;BME280;22147;52.388;13.390;2023-01-31T00:05:32;100741.03;;;2.08;100.00
36092;BME280;22147;52.388;13.390;2023-01-31T00:08:02;100747.88;;;2.10;100.00
36092;BME280;22147;52.388;13.390;2023-01-31T00:10:32;100756.06;;;2.05;100.00
36092;BME280;22147;52.388;13.390;2023-01-31T00:13:02;100751.44;;;2.06;100.00
36092;BME280;22147;52.388;13.390;2023-01-31T00:15:31;100751.41;;;1.95;100.00
36092;BME280;22147;52.388;13.390;2023-01-31T00:17:59;100754.69;;;1.92;100.00
36092;BME280;22147;52.388;13.390;2023-01-31T00:20:27;100762.63;;;1.99;100.00
36092;BME280;22147;52.388;13.390;2023-01-31T00:22:57;100770.88;;;2.04;100.00
36092;BME280;22147;52.388;13.390;2023-01-31T00:25:24;100782.91;;;1.98;100.00
36092;BME280;22147;52.388;13.390;2023-01-31T00:27:53;100785.06;;;1.86;100.00
36092;BME280;22147;52.388;13.390;2023-01-31T00:30:21;100791.09;;;1.82;100.00
36092;BME280;22147;52.388;13.390;2023-01-31T00:32:50;100791.34;;;1.81;100.00
36092;BME280;22147;52.388;13.390;2023-01-31T00:35:18;100793.19;;;1.60;100.00
36092;BME280;22147;52.388;13.390;2023-01-31T00:37:47;100797.94;;;1.85;100.00
36092;BME280;22147;52.388;13.390;2023-01-31T00:45:01;100806.16;;;1.90;100.00
36092;BME280;22147;52.388;13.390;2023-01-31T00:47:30;100804.03;;;2.02;100.00
36092;BME280;22147;52.388;13.390;2023-01-31T00:50:00;100806.16;;;1.85;100.00
36092;BME280;22147;52.388;13.390;2023-01-31T00:52:30;100807.28;;;1.89;100.00
36092;BME280;22147;52.388;13.390;2023-01-31T00:55:00;100812.25;;;1.97;100.00
36092;BME280;22147;52.388;13.390;2023-01-31T00:57:30;100815.19;;;1.86;100.00
36092;BME280;22147;52.388;13.390;2023-01-31T00:59:59;100816.00;;;1.81;100.00
36092;BME280;22147;52.388;13.390;2023-01-31T01:02:27;100827.53;;;1.88;100.00
36092;BME280;22147;52.388;13.390;2023-01-31T01:04:55;100833.88;;;1.99;100.00
36092;BME280;22147;52.388;13.390;2023-01-31T01:07:24;100834.41;;;1.96;100.00
36092;BME280;22147;52.388;13.390;2023-01-31T01:09:52;100844.88;;;2.09;100.00
36092;BME280;22147;52.388;13.390;2023-01-31T01:12:21;100839.94;;;2.11;100.00
36092;BME280;22147;52.388;13.390;2023-01-31T01:14:49;100845.16;;;2.18;100.00
36092;BME280;22147;52.388;13.390;2023-01-31T01:17:18;100842.19;;;2.24;100.00
36092;BME280;22147;52.388;13.390;2023-01-31T01:19:46;100845.72;;;2.15;100.00
36092;BME280;22147;52.388;13.390;2023-01-31T01:22:15;100853.38;;;2.13;100.00
36092;BME280;22147;52.388;13.390;2023-01-31T01:24:44;100858.03;;;2.12;100.00
36092;BME280;22147;52.388;13.390;2023-01-31T01:27:15;100865.19;;;2.23;100.00
36092;BME280;22147;52.388;13.390;2023-01-31T01:29:43;100862.19;;;2.30;100.00
36092;BME280;22147;52.388;13.390;2023-01-31T01:32:12;100860.56;;;2.34;100.00
36092;BME280;22147;52.388;13.390;2023-01-31T01:34:40;100858.97;;;2.49;100.00
36092;BME280;22147;52.388;13.390;2023-01-31T01:37:09;100863.91;;;2.41;100.00
36092;BME280;22147;52.388;13.390;2023-01-31T01:39:40;100864.94;;;2.30;100.00
36092;BME280;22147;52.388;13.390;2023-01-31T01:42:16;100862.75;;;2.32;100.00
36092;BME280;22147;52.388;13.390;2023-01-31T01:44:55;100861.66;;;2.28;100.00
36092;BME280;22147;52.388;13.390;2023-01-31T01:47:39;100869.28;;;2.16;100.00
36092;BME280;22147;52.388;13.390;2023-01-31T01:50:34;100874.50;;;2.17;100.00
36092;BME280;22147;52.388;13.390;2023-01-31T01:53:24;100888.78;;;2.24;100.00
36092;BME280;22147;52.388;13.390;2023-01-31T01:56:14;100899.16;;;2.12;100.00
36092;BME280;22147;52.388;13.390;2023-01-31T01:59:00;100910.44;;;2.26;100.00
36092;BME280;22147;52.388;13.390;2023-01-31T02:01:37;100913.72;;;2.23;100.00
36092;BME280;22147;52.388;13.390;2023-01-31T02:04:16;100914.31;;;2.35;100.00
36092;BME280;22147;52.388;13.390;2023-01-31T02:06:47;100913.75;;;2.33;100.00
36092;BME280;22147;52.388;13.390;2023-01-31T02:12:17;100923.09;;;2.42;100.00
36092;BME280;22147;52.388;13.390;2023-01-31T02:14:49;100922.78;;;2.34;100.00
36092;BME280;22147;52.388;13.390;2023-01-31T02:17:19;100917.31;;;2.29;100.00
36092;BME280;22147;52.388;13.390;2023-01-31T02:26:59;100935.94;;;2.27;100.00
36092;BME280;22147;52.388;13.390;2023-01-31T02:33:20;100935.09;;;2.26;100.00
36092;BME280;22147;52.388;13.390;2023-01-31T02:50:05;100943.75;;;2.02;100.00
36092;BME280;22147;52.388;13.390;2023-01-31T02:56:00;100930.84;;;1.93;100.00
36092;BME280;22147;52.388;13.390;2023-01-31T02:59:04;100946.50;;;1.65;100.00
36092;BME280;22147;52.388;13.390;2023-01-31T03:02:00;100932.13;;;1.80;100.00
36092;BME280;22147;52.388;13.390;2023-01-31T03:04:33;100946.56;;;1.70;100.00
36092;BME280;22147;52.388;13.390;2023-01-31T03:07:14;100947.38;;;1.66;100.00
36092;BME280;22147;52.388;13.390;2023-01-31T03:19:21;100949.91;;;1.40;100.00
36092;BME280;22147;52.388;13.390;2023-01-31T03:22:08;100952.69;;;1.45;100.00
36092;BME280;22147;52.388;13.390;2023-01-31T03:24:49;100961.13;;;1.38;100.00
36092;BME280;22147;52.388;13.390;2023-01-31T03:27:22;100959.50;;;1.42;100.00
36092;BME280;22147;52.388;13.390;2023-01-31T03:30:03;100956.81;;;1.48;100.00
36092;BME280;22147;52.388;13.390;2023-01-31T03:32:54;100960.28;;;1.38;100.00
36092;BME280;22147;52.388;13.390;2023-01-31T03:35:34;100954.03;;;1.42;100.00
36092;BME280;22147;52.388;13.390;2023-01-31T03:38:25;100965.22;;;1.41;100.00
36092;BME280;22147;52.388;13.390;2023-01-31T03:41:09;100972.22;;;1.27;100.00
36092;BME280;22147;52.388;13.390;2023-01-31T03:44:01;100978.72;;;1.20;100.00
36092;BME280;22147;52.388;13.390;2023-01-31T03:47:03;100984.06;;;1.32;100.00
36092;BME280;22147;52.388;13.390;2023-01-31T03:49:42;100992.38;;;1.15;100.00
36092;BME280;22147;52.388;13.390;2023-01-31T03:52:28;100989.09;;;1.18;100.00
36092;BME280;22147;52.388;13.390;2023-01-31T03:55:14;100993.19;;;1.16;100.00
36092;BME280;22147;52.388;13.390;2023-01-31T03:57:54;100994.06;;;1.21;100.00
36092;BME280;22147;52.388;13.390;2023-01-31T04:00:26;100990.75;;;1.14;100.00
36092;BME280;22147;52.388;13.390;2023-01-31T04:05:57;101010.44;;;1.16;100.00
36092;BME280;22147;52.388;13.390;2023-01-31T04:08:27;101011.94;;;1.02;100.00
36092;BME280;22147;52.388;13.390;2023-01-31T04:11:09;101014.75;;;0.85;100.00
36092;BME280;22147;52.388;13.390;2023-01-31T04:13:42;101017.50;;;0.85;100.00
36092;BME280;22147;52.388;13.390;2023-01-31T04:16:13;101016.16;;;0.88;100.00
36092;BME280;22147;52.388;13.390;2023-01-31T04:18:43;101030.53;;;1.00;100.00
36092;BME280;22147;52.388;13.390;2023-01-31T04:21:13;101026.31;;;0.92;100.00
36092;BME280;22147;52.388;13.390;2023-01-31T04:23:44;101025.34;;;0.76;100.00
36092;BME280;22147;52.388;13.390;2023-01-31T04:26:14;101025.50;;;0.92;100.00
36092;BME280;22147;52.388;13.390;2023-01-31T04:28:44;101020.47;;;0.84;100.00
36092;BME280;22147;52.388;13.390;2023-01-31T04:31:14;101017.28;;;0.92;100.00
36092;BME280;22147;52.388;13.390;2023-01-31T04:33:44;101024.25;;;0.77;100.00
36092;BME280;22147;52.388;13.390;2023-01-31T04:36:15;101016.94;;;0.83;100.00
36092;BME280;22147;52.388;13.390;2023-01-31T04:38:45;101017.38;;;0.75;100.00
36092;BME280;22147;52.388;13.390;2023-01-31T04:41:15;101029.13;;;0.75;100.00
36092;BME280;22147;52.388;13.390;2023-01-31T04:43:45;101023.09;;;0.73;100.00
36092;BME280;22147;52.388;13.390;2023-01-31T04:46:15;101031.53;;;0.72;100.00
36092;BME280;22147;52.388;13.390;2023-01-31T04:48:45;101029.50;;;0.84;100.00
36092;BME280;22147;52.388;13.390;2023-01-31T04:51:15;101029.63;;;0.94;100.00
36092;BME280;22147;52.388;13.390;2023-01-31T04:53:45;101033.63;;;0.87;100.00
36092;BME280;22147;52.388;13.390;2023-01-31T04:56:15;101026.19;;;1.04;100.00
36092;BME280;22147;52.388;13.390;2023-01-31T04:59:14;101033.53;;;1.04;100.00
36092;BME280;22147;52.388;13.390;2023-01-31T05:01:44;101045.53;;;0.97;100.00
36092;BME280;22147;52.388;13.390;2023-01-31T05:04:14;101042.28;;;1.00;100.00
36092;BME280;22147;52.388;13.390;2023-01-31T05:06:45;101041.88;;;1.14;100.00
36092;BME280;22147;52.388;13.390;2023-01-31T05:09:15;101057.06;;;1.27;100.00
36092;BME280;22147;52.388;13.390;2023-01-31T05:11:46;101049.72;;;1.32;100.00
36092;BME280;22147;52.388;13.390;2023-01-31T05:14:16;101057.16;;;1.37;100.00
36092;BME280;22147;52.388;13.390;2023-01-31T05:16:49;101048.44;;;1.40;100.00
36092;BME280;22147;52.388;13.390;2023-01-31T05:19:19;101062.03;;;1.30;100.00
36092;BME280;22147;52.388;13.390;2023-01-31T05:21:49;101057.59;;;1.51;100.00
36092;BME280;22147;52.388;13.390;2023-01-31T05:24:32;101070.38;;;1.45;100.00
36092;BME280;22147;52.388;13.390;2023-01-31T05:27:03;101056.56;;;1.30;100.00
36092;BME280;22147;52.388;13.390;2023-01-31T05:29:33;101058.47;;;1.29;100.00
36092;BME280;22147;52.388;13.390;2023-01-31T05:32:03;101065.53;;;1.25;100.00
36092;BME280;22147;52.388;13.390;2023-01-31T05:34:34;101061.13;;;1.51;100.00
36092;BME280;22147;52.388;13.390;2023-01-31T05:37:04;101057.94;;;1.59;100.00
36092;BME280;22147;52.388;13.390;2023-01-31T05:39:34;101068.78;;;1.49;100.00
36092;BME280;22147;52.388;13.390;2023-01-31T05:42:06;101054.28;;;1.49;100.00
36092;BME280;22147;52.388;13.390;2023-01-31T05:44:36;101075.03;;;1.45;100.00
36092;BME280;22147;52.388;13.390;2023-01-31T05:47:06;101059.28;;;1.57;100.00
36092;BME280;22147;52.388;13.390;2023-01-31T05:49:35;101073.25;;;1.60;100.00
36092;BME280;22147;52.388;13.390;2023-01-31T05:52:05;101067.16;;;1.80;100.00
36092;BME280;22147;52.388;13.390;2023-01-31T05:54:35;101073.41;;;1.76;100.00
36092;BME280;22147;52.388;13.390;2023-01-31T05:57:05;101076.22;;;1.86;100.00
36092;BME280;22147;52.388;13.390;2023-01-31T05:59:35;101069.91;;;1.86;100.00
36092;BME280;22147;52.388;13.390;2023-01-31T06:02:05;101080.94;;;1.91;100.00
36092;BME280;22147;52.388;13.390;2023-01-31T06:04:34;101079.81;;;1.87;100.00
36092;BME280;22147;52.388;13.390;2023-01-31T06:07:04;101085.22;;;1.81;100.00
36092;BME280;22147;52.388;13.390;2023-01-31T06:09:34;101078.19;;;1.91;100.00
36092;BME280;22147;52.388;13.390;2023-01-31T06:12:15;101071.09;;;1.95;100.00
36092;BME280;22147;52.388;13.390;2023-01-31T06:14:43;101083.38;;;1.87;100.00
36092;BME280;22147;52.388;13.390;2023-01-31T06:17:14;101085.00;;;1.88;100.00
36092;BME280;22147;52.388;13.390;2023-01-31T06:19:43;101078.47;;;1.94;100.00
36092;BME280;22147;52.388;13.390;2023-01-31T06:22:11;101089.97;;;1.91;100.00
36092;BME280;22147;52.388;13.390;2023-01-31T06:24:39;101090.28;;;1.95;100.00
36092;BME280;22147;52.388;13.390;2023-01-31T06:27:08;101092.59;;;2.13;100.00
36092;BME280;22147;52.388;13.390;2023-01-31T06:29:36;101103.53;;;2.08;100.00
36092;BME280;22147;52.388;13.390;2023-01-31T06:32:05;101091.34;;;1.94;100.00
36092;BME280;22147;52.388;13.390;2023-01-31T06:34:33;101103.81;;;1.79;100.00
36092;BME280;22147;52.388;13.390;2023-01-31T06:37:02;101097.63;;;1.89;100.00
36092;BME280;22147;52.388;13.390;2023-01-31T06:39:30;101109.81;;;2.03;100.00
36092;BME280;22147;52.388;13.390;2023-01-31T06:41:58;101102.75;;;2.18;100.00
36092;BME280;22147;52.388;13.390;2023-01-31T06:44:27;101091.75;;;2.08;100.00
36092;BME280;22147;52.388;13.390;2023-01-31T06:46:55;101102.25;;;2.21;100.00
36092;BME280;22147;52.388;13.390;2023-01-31T06:49:24;101105.00;;;2.21;100.00
36092;BME280;22147;52.388;13.390;2023-01-31T06:51:52;101104.69;;;2.17;100.00
36092;BME280;22147;52.388;13.390;2023-01-31T06:54:20;101098.94;;;2.19;100.00
36092;BME280;22147;52.388;13.390;2023-01-31T06:56:49;101101.69;;;2.19;100.00
36092;BME280;22147;52.388;13.390;2023-01-31T06:59:17;101098.69;;;2.20;100.00
36092;BME280;22147;52.388;13.390;2023-01-31T07:01:46;101102.28;;;2.26;100.00
36092;BME280;22147;52.388;13.390;2023-01-31T07:04:14;101088.47;;;2.11;100.00
36092;BME280;22147;52.388;13.390;2023-01-31T07:06:42;101101.91;;;2.12;100.00
36092;BME280;22147;52.388;13.390;2023-01-31T07:09:11;101107.69;;;2.16;100.00
36092;BME280;22147;52.388;13.390;2023-01-31T07:11:39;101110.66;;;2.09;100.00
36092;BME280;22147;52.388;13.390;2023-01-31T07:14:08;101114.25;;;2.10;100.00
36092;BME280;22147;52.388;13.390;2023-01-31T07:16:36;101124.06;;;2.06;100.00
36092;BME280;22147;52.388;13.390;2023-01-31T07:19:05;101109.25;;;2.01;100.00
36092;BME280;22147;52.388;13.390;2023-01-31T07:21:33;101105.78;;;2.16;100.00
36092;BME280;22147;52.388;13.390;2023-01-31T07:24:05;101091.44;;;2.04;100.00
36092;BME280;22147;52.388;13.390;2023-01-31T07:26:32;101083.22;;;2.04;100.00
36092;BME280;22147;52.388;13.390;2023-01-31T07:29:01;101084.34;;;2.08;100.00
36092;BME280;22147;52.388;13.390;2023-01-31T07:31:29;101084.75;;;2.27;100.00
36092;BME280;22147;52.388;13.390;2023-01-31T07:33:58;101095.41;;;2.18;100.00
36092;BME280;22147;52.388;13.390;2023-01-31T07:36:26;101092.13;;;2.21;100.00
36092;BME280;22147;52.388;13.390;2023-01-31T07:38:57;101093.97;;;2.11;100.00
36092;BME280;22147;52.388;13.390;2023-01-31T07:41:26;101097.19;;;2.02;100.00
36092;BME280;22147;52.388;13.390;2023-01-31T07:43:54;101089.91;;;2.18;100.00
36092;BME280;22147;52.388;13.390;2023-01-31T07:46:23;101097.84;;;2.20;100.00
36092;BME280;22147;52.388;13.390;2023-01-31T07:48:51;101097.09;;;2.30;100.00
36092;BME280;22147;52.388;13.390;2023-01-31T07:51:20;101092.91;;;2.17;100.00
36092;BME280;22147;52.388;13.390;2023-01-31T07:53:48;101088.00;;;2.19;100.00
36092;BME280;22147;52.388;13.390;2023-01-31T07:56:19;101091.63;;;2.30;100.00
36092;BME280;22147;52.388;13.390;2023-01-31T07:58:50;101092.44;;;2.30;100.00
36092;BME280;22147;52.388;13.390;2023-01-31T08:01:23;101090.41;;;2.15;100.00
36092;BME280;22147;52.388;13.390;2023-01-31T08:04:15;101085.50;;;2.17;100.00
36092;BME280;22147;52.388;13.390;2023-01-31T08:06:54;101088.16;;;2.44;100.00
36092;BME280;22147;52.388;13.390;2023-01-31T08:09:24;101094.19;;;2.47;100.00
36092;BME280;22147;52.388;13.390;2023-01-31T08:11:54;101090.34;;;2.48;100.00
36092;BME280;22147;52.388;13.390;2023-01-31T08:14:24;101084.34;;;2.46;100.00
36092;BME280;22147;52.388;13.390;2023-01-31T08:16:54;101094.75;;;2.49;100.00
36092;BME280;22147;52.388;13.390;2023-01-31T08:19:25;101076.94;;;2.51;100.00
36092;BME280;22147;52.388;13.390;2023-01-31T08:21:55;101092.03;;;2.54;100.00
36092;BME280;22147;52.388;13.390;2023-01-31T08:24:25;101081.91;;;2.54;100.00
36092;BME280;22147;52.388;13.390;2023-01-31T08:26:56;101086.28;;;2.55;100.00
36092;BME280;22147;52.388;13.390;2023-01-31T08:29:26;101089.59;;;2.52;100.00
36092;BME280;22147;52.388;13.390;2023-01-31T08:31:59;101090.47;;;2.63;100.00
36092;BME280;22147;52.388;13.390;2023-01-31T08:34:29;101075.03;;;2.52;100.00
36092;BME280;22147;52.388;13.390;2023-01-31T08:36:59;101079.19;;;2.59;100.00
36092;BME280;22147;52.388;13.390;2023-01-31T08:39:29;101078.31;;;2.54;100.00
36092;BME280;22147;52.388;13.390;2023-01-31T08:41:59;101076.38;;;2.49;100.00
36092;BME280;22147;52.388;13.390;2023-01-31T08:44:29;101075.03;;;2.52;100.00
36092;BME280;22147;52.388;13.390;2023-01-31T08:46:58;101075.25;;;2.40;100.00
36092;BME280;22147;52.388;13.390;2023-01-31T08:49:31;101069.44;;;2.31;100.00
36092;BME280;22147;52.388;13.390;2023-01-31T08:52:04;101075.19;;;2.35;100.00
36092;BME280;22147;52.388;13.390;2023-01-31T08:54:35;101067.31;;;2.43;100.00
36092;BME280;22147;52.388;13.390;2023-01-31T08:57:05;101069.81;;;2.50;100.00
36092;BME280;22147;52.388;13.390;2023-01-31T08:59:35;101064.31;;;2.45;100.00
36092;BME280;22147;52.388;13.390;2023-01-31T09:02:08;101058.81;;;2.45;100.00
36092;BME280;22147;52.388;13.390;2023-01-31T09:04:37;101046.47;;;2.48;100.00
36092;BME280;22147;52.388;13.390;2023-01-31T09:07:05;101050.69;;;2.60;100.00
36092;BME280;22147;52.388;13.390;2023-01-31T09:09:34;101052.38;;;2.72;100.00
36092;BME280;22147;52.388;13.390;2023-01-31T09:12:03;101046.94;;;2.82;100.00
36092;BME280;22147;52.388;13.390;2023-01-31T09:14:32;101046.63;;;2.73;100.00
36092;BME280;22147;52.388;13.390;2023-01-31T09:17:00;101037.00;;;2.65;100.00
36092;BME280;22147;52.388;13.390;2023-01-31T09:19:32;101038.41;;;2.73;100.00
36092;BME280;22147;52.388;13.390;2023-01-31T09:22:02;101041.97;;;2.79;100.00
36092;BME280;22147;52.388;13.390;2023-01-31T09:24:32;101032.41;;;2.87;100.00
36092;BME280;22147;52.388;13.390;2023-01-31T09:27:02;101040.09;;;2.84;100.00
36092;BME280;22147;52.388;13.390;2023-01-31T09:29:33;101035.97;;;2.82;100.00
36092;BME280;22147;52.388;13.390;2023-01-31T09:32:04;101026.38;;;2.84;100.00
36092;BME280;22147;52.388;13.390;2023-01-31T09:34:34;101023.38;;;2.91;100.00
36092;BME280;22147;52.388;13.390;2023-01-31T09:37:04;101032.97;;;2.89;100.00
36092;BME280;22147;52.388;13.390;2023-01-31T09:39:34;101023.38;;;2.91;100.00
36092;BME280;22147;52.388;13.390;2023-01-31T09:42:19;101017.63;;;2.98;100.00
36092;BME280;22147;52.388;13.390;2023-01-31T09:45:08;101020.69;;;3.17;100.00
36092;BME280;22147;52.388;13.390;2023-01-31T09:47:51;101017.97;;;3.22;100.00
36092;BME280;22147;52.388;13.390;2023-01-31T09:50:53;101014.41;;;3.32;100.00
36092;BME280;22147;52.388;13.390;2023-01-31T09:53:36;101011.91;;;3.30;100.00
36092;BME280;22147;52.388;13.390;2023-01-31T10:05:22;100995.72;;;3.34;100.00
36092;BME280;22147;52.388;13.390;2023-01-31T10:08:25;101000.16;;;3.50;100.00
36092;BME280;22147;52.388;13.390;2023-01-31T10:11:36;100988.34;;;3.60;100.00
36092;BME280;22147;52.388;13.390;2023-01-31T10:17:35;100985.03;;;3.68;100.00
36092;BME280;22147;52.388;13.390;2023-01-31T10:20:41;100974.06;;;3.73;100.00
36092;BME280;22147;52.388;13.390;2023-01-31T10:26:31;100970.75;;;3.61;100.00
36092;BME280;22147;52.388;13.390;2023-01-31T10:32:05;100962.81;;;3.64;100.00
36092;BME280;22147;52.388;13.390;2023-01-31T10:35:18;100961.97;;;3.59;100.00
36092;BME280;22147;52.388;13.390;2023-01-31T10:38:04;100940.81;;;3.59;100.00
36092;BME280;22147;52.388;13.390;2023-01-31T10:40:47;100943.84;;;3.53;100.00
36092;BME280;22147;52.388;13.390;2023-01-31T10:43:38;100936.97;;;3.50;100.00
36092;BME280;22147;52.388;13.390;2023-01-31T10:46:14;100933.94;;;3.57;100.00
36092;BME280;22147;52.388;13.390;2023-01-31T10:48:46;100927.94;;;3.60;100.00
36092;BME280;22147;52.388;13.390;2023-01-31T10:55:03;100930.38;;;3.77;100.00
36092;BME280;22147;52.388;13.390;2023-01-31T10:57:37;100922.09;;;3.87;100.00
36092;BME280;22147;52.388;13.390;2023-01-31T11:00:16;100922.09;;;3.87;100.00
36092;BME280;22147;52.388;13.390;2023-01-31T11:02:48;100921.28;;;3.76;100.00
36092;BME280;22147;52.388;13.390;2023-01-31T11:05:23;100902.59;;;3.78;100.00
36092;BME280;22147;52.388;13.390;2023-01-31T11:08:00;100892.44;;;3.74;100.00
36092;BME280;22147;52.388;13.390;2023-01-31T11:10:56;100897.69;;;3.65;100.00
36092;BME280;22147;52.388;13.390;2023-01-31T11:13:27;100891.38;;;3.59;100.00
36092;BME280;22147;52.388;13.390;2023-01-31T11:15:59;100871.84;;;3.66;100.00
36092;BME280;22147;52.388;13.390;2023-01-31T11:18:44;100869.38;;;3.75;100.00
36092;BME280;22147;52.388;13.390;2023-01-31T11:21:23;100865.56;;;3.71;100.00
36092;BME280;22147;52.388;13.390;2023-01-31T11:24:14;100861.72;;;3.61;100.00
36092;BME280;22147;52.388;13.390;2023-01-31T11:26:56;100847.44;;;3.54;100.00
36092;BME280;22147;52.388;13.390;2023-01-31T11:29:40;100830.16;;;3.49;100.00
36092;BME280;22147;52.388;13.390;2023-01-31T11:32:29;100830.97;;;3.49;100.00
36092;BME280;22147;52.388;13.390;2023-01-31T11:35:30;100838.09;;;3.55;100.00
36092;BME280;22147;52.388;13.390;2023-01-31T11:38:22;100822.97;;;3.68;100.00
36092;BME280;22147;52.388;13.390;2023-01-31T11:40:53;100818.56;;;3.67;100.00
36092;BME280;22147;52.388;13.390;2023-01-31T11:43:29;100815.50;;;3.79;100.00
36092;BME280;22147;52.388;13.390;2023-01-31T11:46:02;100817.47;;;3.68;100.00
36092;BME280;22147;52.388;13.390;2023-01-31T11:48:43;100805.13;;;3.71;100.00
36092;BME280;22147;52.388;13.390;2023-01-31T11:51:29;100800.44;;;3.66;100.00
36092;BME280;22147;52.388;13.390;2023-01-31T11:54:04;100790.31;;;3.51;100.00
36092;BME280;22147;52.388;13.390;2023-01-31T11:56:37;100770.31;;;3.40;100.00
36092;BME280;22147;52.388;13.390;2023-01-31T11:59:17;100762.31;;;3.49;100.00
36092;BME280;22147;52.388;13.390;2023-01-31T12:01:54;100754.06;;;3.49;100.00
36092;BME280;22147;52.388;13.390;2023-01-31T12:04:40;100739.56;;;3.43;100.00
36092;BME280;22147;52.388;13.390;2023-01-31T12:07:27;100740.97;;;3.31;100.00
36092;BME280;22147;52.388;13.390;2023-01-31T12:10:00;100734.63;;;3.45;100.00
36092;BME280;22147;52.388;13.390;2023-01-31T12:12:34;100725.56;;;3.40;100.00
36092;BME280;22147;52.388;13.390;2023-01-31T12:15:15;100714.84;;;3.38;100.00
36092;BME280;22147;52.388;13.390;2023-01-31T12:17:49;100707.44;;;3.44;100.00
36092;BME280;22147;52.388;13.390;2023-01-31T12:20:54;100707.16;;;3.45;100.00
36092;BME280;22147;52.388;13.390;2023-01-31T12:27:15;100699.81;;;3.31;100.00
36092;BME280;22147;52.388;13.390;2023-01-31T12:29:51;100691.28;;;3.32;100.00
36092;BME280;22147;52.388;13.390;2023-01-31T12:42:27;100674.84;;;3.17;100.00
36092;BME280;22147;52.388;13.390;2023-01-31T12:45:39;100665.78;;;3.26;100.00
36092;BME280;22147;52.388;13.390;2023-01-31T12:52:53;100654.34;;;2.99;100.00
36092;BME280;22147;52.388;13.390;2023-01-31T12:56:24;100657.38;;;2.97;100.00
36092;BME280;22147;52.388;13.390;2023-01-31T12:59:31;100638.47;;;2.80;100.00
36092;BME280;22147;52.388;13.390;2023-01-31T13:03:00;100633.84;;;2.65;100.00
36092;BME280;22147;52.388;13.390;2023-01-31T13:09:04;100616.59;;;2.50;100.00
36092;BME280;22147;52.388;13.390;2023-01-31T13:14:57;100618.22;;;2.56;100.00
36092;BME280;22147;52.388;13.390;2023-01-31T13:17:39;100622.88;;;2.65;100.00
36092;BME280;22147;52.388;13.390;2023-01-31T13:23:07;100617.44;;;2.50;100.00
36092;BME280;22147;52.388;13.390;2023-01-31T13:28:56;100605.34;;;2.61;100.00
36092;BME280;22147;52.388;13.390;2023-01-31T13:31:46;100602.34;;;2.63;100.00
36092;BME280;22147;52.388;13.390;2023-01-31T13:37:20;100606.69;;;2.74;100.00
36092;BME280;22147;52.388;13.390;2023-01-31T13:39:55;100592.69;;;2.76;100.00
36092;BME280;22147;52.388;13.390;2023-01-31T13:42:28;100595.16;;;2.77;100.00
36092;BME280;22147;52.388;13.390;2023-01-31T13:45:05;100592.97;;;2.74;100.00
36092;BME280;22147;52.388;13.390;2023-01-31T13:47:50;100596.19;;;2.92;100.00
36092;BME280;22147;52.388;13.390;2023-01-31T13:50:48;100588.53;;;2.89;100.00
36092;BME280;22147;52.388;13.390;2023-01-31T13:53:34;100591.56;;;2.87;100.00
36092;BME280;22147;52.388;13.390;2023-01-31T13:56:44;100585.50;;;2.95;100.00
36092;BME280;22147;52.388;13.390;2023-01-31T13:59:26;100586.38;;;2.80;100.00
36092;BME280;22147;52.388;13.390;2023-01-31T14:02:04;100580.59;;;2.77;100.00
36092;BME280;22147;52.388;13.390;2023-01-31T14:04:46;100584.75;;;2.74;100.00
36092;BME280;22147;52.388;13.390;2023-01-31T14:07:21;100584.72;;;2.84;100.00
36092;BME280;22147;52.388;13.390;2023-01-31T14:12:37;100573.16;;;2.88;100.00
36092;BME280;22147;52.388;13.390;2023-01-31T14:15:48;100588.84;;;2.82;100.00
36092;BME280;22147;52.388;13.390;2023-01-31T14:18:44;100584.38;;;2.96;100.00
36092;BME280;22147;52.388;13.390;2023-01-31T14:24:02;100573.97;;;2.93;100.00
36092;BME280;22147;52.388;13.390;2023-01-31T14:29:25;100574.25;;;2.97;100.00
36092;BME280;22147;52.388;13.390;2023-01-31T14:31:56;100567.34;;;3.04;100.00
36092;BME280;22147;52.388;13.390;2023-01-31T14:34:29;100563.56;;;2.90;100.00
36092;BME280;22147;52.388;13.390;2023-01-31T14:50:30;100549.28;;;2.93;100.00
36092;BME280;22147;52.388;13.390;2023-01-31T14:53:26;100538.88;;;2.85;100.00
36092;BME280;22147;52.388;13.390;2023-01-31T14:59:34;100535.06;;;2.81;100.00
36092;BME280;22147;52.388;13.390;2023-01-31T15:14:40;100533.94;;;2.92;100.00
36092;BME280;22147;52.388;13.390;2023-01-31T15:17:23;100519.91;;;2.94;100.00
36092;BME280;22147;52.388;13.390;2023-01-31T15:20:27;100525.13;;;2.95;100.00
36092;BME280;22147;52.388;13.390;2023-01-31T15:23:20;100522.38;;;2.95;100.00
36092;BME280;22147;52.388;13.390;2023-01-31T15:25:56;100518.53;;;2.96;100.00
36092;BME280;22147;52.388;13.390;2023-01-31T15:28:36;100517.16;;;2.99;100.00
36092;BME280;22147;52.388;13.390;2023-01-31T15:31:29;100522.28;;;3.11;100.00
36092;BME280;22147;52.388;13.390;2023-01-31T15:34:18;100507.28;;;2.98;100.00
36092;BME280;22147;52.388;13.390;2023-01-31T15:39:48;100509.09;;;3.18;100.00
36092;BME280;22147;52.388;13.390;2023-01-31T15:42:28;100509.59;;;3.25;100.00
36092;BME280;22147;52.388;13.390;2023-01-31T15:45:28;100516.63;;;3.41;100.00
36092;BME280;22147;52.388;13.390;2023-01-31T15:48:16;100521.91;;;3.33;100.00
36092;BME280;22147;52.388;13.390;2023-01-31T15:50:58;100507.31;;;3.37;100.00